Latest Weather Observations for Wulungurru (Kintore)

IDD60801

Issued at 2:01 pm CST Saturday 27 August 2016 (issued every 30 minutes, with the page automatically refreshed every 10 minutes)

About weather observations | Map of weather stations | Latest weather observations for NT | Other Formats
Station Details ID: 015664 Name: WALUNGURRU AIRPORT Lat: -23.27 Lon: 129.38 Height: 454.3 m
Data from the previous 72 hours. | See also: Recent months at Wulungurru (Kintore)
Date/Time
CST
Temp
°C
App
Temp
°C
Dew
Point
°C
Rel
Hum
%
Delta-T
°C
Wind Press
QNH
hPa
Press
MSL
hPa
Rain since
9am
mm
Dir  Spd
km/h
Gust
km/h
Spd
kts
Gust
kts
27/02:00pm 26.7 19.9 -2.1 15 13.2 N 24 35 13 19 1016.8 - 0.0
27/01:30pm 26.1 18.6 -1.7 16 12.8 N 28 41 15 22 1017.4 - 0.0
27/01:00pm 25.7 18.6 -1.2 17 12.5 N 26 39 14 21 1017.9 - 0.0
27/12:30pm 24.9 17.5 -1.0 18 12.0 N 28 39 15 21 1018.4 - 0.0
27/12:00pm 24.4 17.0 -0.7 19 11.6 N 28 39 15 21 1019.1 1018.4 0.0
27/11:30am 22.9 14.8 -0.6 21 10.8 N 32 41 17 22 1019.4 - 0.0
27/11:00am 21.6 13.4 -1.0 22 10.2 N 32 41 17 22 1019.8 - 0.0
27/10:30am 20.6 12.5 -0.1 25 9.4 NNE 32 43 17 23 1020.0 - 0.0
27/10:00am 19.4 11.3 -0.1 27 8.8 NNE 32 39 17 21 1020.3 - 0.0
27/09:30am 18.0 10.3 -0.3 29 8.1 NNE 30 39 16 21 1020.1 - 0.0
27/09:00am 16.5 9.1 -0.7 31 7.4 NE 28 39 15 21 1019.9 - 0.0
27/08:30am 13.9 6.8 -0.9 36 6.2 ENE 26 33 14 18 1019.8 - 0.0
27/08:00am 12.7 5.6 -1.2 38 5.7 ENE 26 35 14 19 1019.5 - 0.0
27/07:30am 12.2 5.5 -1.0 40 5.5 ENE 24 32 13 17 1019.3 - 0.0
27/07:00am 11.9 5.2 -1.3 40 5.4 ENE 24 32 13 17 1019.0 - 0.0
27/06:00am 12.7 6.3 -1.6 37 5.8 ENE 22 28 12 15 1018.2 1017.5 0.0
27/05:30am 13.1 6.7 -1.6 36 6.0 ENE 22 30 12 16 1018.0 - 0.0
27/05:00am 13.2 6.8 -1.5 36 6.1 ENE 22 28 12 15 1017.8 - 0.0
27/04:30am 13.7 6.9 -1.9 34 6.4 ENE 24 30 13 16 1018.0 - 0.0
27/04:00am 13.4 7.4 -1.7 35 6.2 E 20 26 11 14 1018.1 - 0.0
27/03:30am 13.6 7.2 -1.9 34 6.4 ENE 22 28 12 15 1018.2 - 0.0
27/03:00am 13.8 7.8 -1.8 34 6.4 E 20 24 11 13 1018.4 1017.8 0.0
27/02:30am 14.0 8.2 -1.6 34 6.5 ENE 19 24 10 13 1018.8 - 0.0
27/02:00am 14.3 8.5 -1.7 33 6.6 ENE 19 24 10 13 1018.8 - 0.0
27/01:30am 14.6 8.7 -1.9 32 6.8 E 19 24 10 13 1019.1 - 0.0
27/01:00am 15.0 9.1 -2.0 31 7.1 ENE 19 24 10 13 1019.2 - 0.0
27/12:30am 15.7 9.8 -2.3 29 7.5 ENE 19 24 10 13 1019.4 - 0.0
27/12:00am 15.9 10.7 -2.6 28 7.6 E 15 19 8 10 1019.6 1018.9 0.0
 
Date/Time
CST
Temp
°C
App
Temp
°C
Dew
Point
°C
Rel
Hum
%
Delta-T
°C
Wind Press
QNH
hPa
Press
MSL
hPa
Rain since
9am
mm
Dir  Spd
km/h
Gust
km/h
Spd
kts
Gust
kts
26/11:30pm 16.4 11.2 -2.6 27 7.9 E 15 19 8 10 1019.7 - 0.0
26/11:00pm 14.0 9.7 -1.6 34 6.5 E 11 13 6 7 1019.9 - 0.0
26/10:30pm 13.6 10.0 -2.3 33 6.5 ESE 7 9 4 5 1019.8 - 0.0
26/10:00pm 14.1 10.1 -2.3 32 6.7 SSE 9 11 5 6 1019.9 - 0.0
26/09:30pm 14.2 10.2 -2.2 32 6.7 SE 9 9 5 5 1019.8 - 0.0
26/09:00pm 14.7 10.7 -2.2 31 6.9 SE 9 11 5 6 1019.7 1019.0 0.0
26/08:30pm 15.2 11.2 -2.2 30 7.2 ESE 9 11 5 6 1019.5 - 0.0
26/08:00pm 16.3 11.5 -2.2 28 7.7 E 13 13 7 7 1019.2 - 0.0
26/07:30pm 16.8 12.7 -2.8 26 8.1 E 9 11 5 6 1018.9 - 0.0
26/07:00pm 19.3 15.2 -2.9 22 9.4 NE 9 9 5 5 1018.4 - 0.0
26/06:30pm 21.1 17.0 -3.4 19 10.5 NNE 9 13 5 7 1018.1 - 0.0
26/06:00pm 21.8 17.4 -2.8 19 10.7 N 11 19 6 10 1017.9 1017.2 0.0
26/05:30pm 22.3 17.8 -3.1 18 11.0 NNE 11 17 6 9 1017.6 - 0.0
26/05:00pm 22.6 18.9 -2.9 18 11.1 NE 7 13 4 7 1017.6 - 0.0
26/04:30pm 22.7 19.0 -2.8 18 11.2 NE 7 17 4 9 1017.6 - 0.0
26/04:00pm 22.5 18.0 -3.0 18 11.1 ENE 11 20 6 11 1017.7 - 0.0
26/03:30pm 22.3 17.8 -3.1 18 11.0 ESE 11 19 6 10 1018.1 - 0.0
26/03:00pm 22.4 18.6 -3.8 17 11.2 S 7 13 4 7 1018.6 1018.0 0.0
26/02:30pm 21.8 16.5 -3.5 18 10.9 NNE 15 22 8 12 1019.3 - 0.0
26/02:00pm 21.4 17.7 -3.1 19 10.6 NW 7 17 4 9 1019.9 - 0.0
26/01:30pm 21.5 17.1 -2.4 20 10.5 SE 11 20 6 11 1020.4 - 0.0
26/01:00pm 21.0 16.3 -1.5 22 10.0 E 13 22 7 12 1021.2 - 0.0
26/12:30pm 20.7 14.9 -1.2 23 9.7 ENE 19 28 10 15 1021.6 - 0.0
26/11:30am 18.8 12.4 -1.6 25 8.9 ENE 22 32 12 17 1022.6 - 0.0
26/11:00am 18.1 11.4 -1.2 27 8.4 E 24 32 13 17 1022.9 - 0.0
26/10:30am 16.9 10.2 -1.2 29 7.8 E 24 33 13 18 1022.9 - 0.0
26/10:00am 15.5 8.7 -1.5 31 7.2 ENE 24 33 13 18 1023.1 - 0.0
26/09:30am 14.4 7.3 -1.2 34 6.6 E 26 39 14 21 1022.9 - 0.0
26/09:00am 12.8 4.9 -1.5 37 5.8 E 30 43 16 23 1022.7 1022.1 0.0
26/08:30am 12.1 4.3 -1.1 40 5.4 E 30 44 16 24 1022.4 - 0.0
26/08:00am 10.9 2.7 -1.2 43 4.9 ESE 32 43 17 23 1021.9 - 0.0
26/07:30am 10.5 2.0 -1.5 43 4.8 ESE 33 46 18 25 1021.3 - 0.0
26/07:00am 10.1 2.2 -1.9 43 4.7 ESE 30 46 16 25 1020.8 - 0.0
26/06:43am 10.1 2.5 -1.9 43 4.7 ESE 28 46 15 25 1020.8 - 0.0
26/06:30am 10.1 2.9 -2.2 42 4.8 ESE 26 39 14 21 1020.7 - 0.0
26/06:00am 10.1 3.3 -2.2 42 4.8 ESE 24 37 13 20 1020.6 1020.0 0.0
26/05:30am 10.0 2.7 -2.6 41 4.9 SE 26 39 14 21 1020.5 - 0.0
26/05:00am 10.4 2.7 -2.9 39 5.2 SE 28 39 15 21 1020.3 - 0.0
26/04:30am 10.7 2.6 -3.0 38 5.3 SE 30 37 16 20 1020.2 - 0.0
26/04:00am 11.1 2.6 -3.0 37 5.5 SE 32 44 17 24 1020.0 - 0.0
26/03:30am 11.4 2.7 -3.1 36 5.7 SE 33 46 18 25 1020.1 - 0.0
26/03:00am 11.7 3.1 -2.9 36 5.7 SE 33 41 18 22 1020.2 1019.6 0.0
26/02:30am 12.0 3.4 -2.6 36 5.8 SE 33 44 18 24 1020.1 - 0.0
26/02:00am 12.2 3.7 -2.0 37 5.7 SE 33 43 18 23 1020.4 - 0.0
26/01:30am 12.3 4.4 -1.2 39 5.6 SE 30 48 16 26 1020.5 - 0.0
26/01:28am 12.4 4.6 -1.1 39 5.6 SE 30 48 16 26 1020.5 - 0.0
26/01:00am 13.2 4.8 -1.2 37 6.0 SE 33 48 18 26 1020.6 - 0.0
26/12:30am 13.5 6.0 -1.3 36 6.1 SE 28 37 15 20 1020.7 - 0.0
26/12:00am 13.6 7.3 -1.2 36 6.1 SE 22 33 12 18 1020.8 1020.2 0.0
 
Date/Time
CST
Temp
°C
App
Temp
°C
Dew
Point
°C
Rel
Hum
%
Delta-T
°C
Wind Press
QNH
hPa
Press
MSL
hPa
Rain since
9am
mm
Dir  Spd
km/h
Gust
km/h
Spd
kts
Gust
kts
25/11:30pm 14.5 7.8 -1.2 34 6.6 SE 24 33 13 18 1020.6 - 0.0
25/11:00pm 15.0 9.1 -0.7 34 6.7 SSE 20 33 11 18 1020.7 - 0.0
25/10:30pm 15.3 10.4 -0.4 34 6.8 SE 15 22 8 12 1020.4 - 0.0
25/10:00pm 13.7 8.8 -0.7 37 6.1 S 15 17 8 9 1020.3 - 0.0
25/09:30pm 14.3 9.7 -0.9 35 6.4 S 13 17 7 9 1020.4 - 0.0
25/09:00pm 14.3 9.7 -0.9 35 6.4 S 13 15 7 8 1020.2 1019.6 0.0
25/08:30pm 14.4 10.2 -1.2 34 6.6 S 11 13 6 7 1019.9 - 0.0
25/08:00pm 15.6 11.0 -1.4 31 7.2 S 13 13 7 7 1019.6 - 0.0
25/07:30pm 17.5 12.5 -1.2 28 8.1 S 15 19 8 10 1019.3 - 0.0
25/07:00pm 17.7 13.4 -1.5 27 8.3 S 11 15 6 8 1018.9 - 0.0
25/06:30pm 18.9 14.2 -2.1 24 9.0 S 13 20 7 11 1018.5 - 0.0
25/06:00pm 20.0 14.9 -1.7 23 9.5 SSW 15 22 8 12 1018.2 1017.5 0.0
25/05:30pm 20.8 15.4 -1.7 22 9.9 S 17 24 9 13 1017.9 - 0.0
25/05:00pm 21.2 15.8 -1.3 22 10.0 S 17 24 9 13 1017.6 - 0.0
25/04:30pm 21.1 16.4 -2.0 21 10.1 S 13 20 7 11 1017.5 - 0.0
25/04:00pm 21.6 16.2 -1.6 21 10.3 S 17 28 9 15 1017.4 - 0.0
25/03:30pm 22.0 16.0 -1.3 21 10.5 SSW 20 28 11 15 1017.4 - 0.0
25/03:00pm 21.9 18.0 -1.4 21 10.4 N 9 17 5 9 1017.4 1016.7 0.0
25/02:30pm 21.3 17.3 -1.9 21 10.2 SSE 9 17 5 9 1017.8 - 0.0
25/02:00pm 21.8 17.5 -1.5 21 10.4 ESE 11 20 6 11 1018.1 - 0.0
25/01:30pm 20.2 16.2 -2.2 22 9.7 ENE 9 15 5 8 1018.8 - 0.0
25/01:00pm 20.3 16.0 -1.5 23 9.6 SSW 11 19 6 10 1019.3 - 0.0
25/12:30pm 20.1 16.3 -0.5 25 9.2 SSE 9 20 5 11 1019.7 - 0.0
25/12:00pm 19.6 14.9 -1.5 24 9.2 ESE 13 22 7 12 1020.1 1019.4 0.0
25/11:30am 19.3 15.2 -0.1 27 8.7 ESE 11 20 6 11 1020.5 - 0.0
25/11:00am 18.5 14.0 -0.3 28 8.4 SSE 13 19 7 10 1020.6 - 0.0
25/10:30am 17.9 12.7 0.1 30 7.9 SE 17 28 9 15 1020.8 - 0.0
25/10:00am 16.6 11.0 -0.1 32 7.3 SE 19 26 10 14 1020.7 - 0.0
25/09:30am 15.9 10.1 0.1 34 6.9 SSE 20 26 11 14 1020.7 - 0.0
25/09:00am 15.6 10.2 -1.0 32 7.1 SSE 17 20 9 11 1020.3 1019.7 0.0
25/08:30am 14.6 9.7 -0.7 35 6.5 SSE 15 20 8 11 1019.7 - 0.0
25/08:00am 11.2 7.5 0.0 46 4.7 SSW 9 11 5 6 1019.5 - 0.0
25/07:30am 9.2 4.6 -0.7 50 4.0 S 13 17 7 9 1019.0 - 0.0
25/07:00am 9.0 4.8 -1.1 49 4.0 S 11 17 6 9 1018.5 - 0.0
25/06:30am 8.9 5.4 -1.5 48 4.1 SW 7 11 4 6 1018.2 - 0.0
25/06:00am 9.5 6.2 -1.5 46 4.4 SSW 6 13 3 7 1017.9 1017.2 0.0
25/05:30am 10.3 6.5 -1.1 45 4.6 NE 9 15 5 8 1017.6 - 0.0
25/05:00am 9.8 4.7 -1.6 45 4.5 SE 15 28 8 15 1017.3 - 0.0
25/04:30am 10.6 6.3 -1.4 43 4.8 S 11 15 6 8 1016.8 - 0.0
25/04:00am 11.0 6.7 -1.7 41 5.1 SSW 11 13 6 7 1016.7 - 0.0
25/03:30am 15.0 9.5 -2.0 31 7.1 ESE 17 24 9 13 1016.8 - 0.0
25/03:00am 14.2 8.8 -1.0 35 6.4 SE 17 26 9 14 1016.9 1016.2 0.0
25/02:30am 14.3 8.5 -1.7 33 6.6 SE 19 24 10 13 1017.2 - 0.0
25/02:00am 12.8 6.9 -2.3 35 6.1 SSE 19 20 10 11 1017.4 - 0.0
25/01:30am 12.3 6.4 -2.3 36 5.9 SSE 19 20 10 11 1017.6 - 0.0
25/01:00am 12.2 6.3 -2.4 36 5.8 SSE 19 22 10 12 1017.7 - 0.0
25/12:30am 12.5 6.4 -2.1 36 5.9 S 20 24 11 13 1017.6 - 0.0
25/12:00am 12.7 6.6 -2.3 35 6.0 S 20 24 11 13 1017.7 1017.0 0.0
 
Date/Time
CST
Temp
°C
App
Temp
°C
Dew
Point
°C
Rel
Hum
%
Delta-T
°C
Wind Press
QNH
hPa
Press
MSL
hPa
Rain since
9am
mm
Dir  Spd
km/h
Gust
km/h
Spd
kts
Gust
kts
24/11:30pm 13.0 6.9 -2.5 34 6.2 S 20 26 11 14 1017.8 - 0.0
24/11:00pm 13.1 7.6 -2.0 35 6.2 S 17 19 9 10 1017.9 - 0.0
24/10:30pm 13.2 8.1 -1.9 35 6.2 S 15 17 8 9 1017.9 - 0.0
24/10:00pm 13.3 7.8 -2.2 34 6.3 S 17 20 9 11 1018.0 - 0.0
24/09:30pm 13.8 8.3 -2.2 33 6.5 S 17 20 9 11 1018.0 - 0.0
24/09:00pm 14.6 9.1 -1.9 32 6.8 S 17 24 9 13 1017.7 1017.0 0.0
24/08:30pm 14.3 9.5 -2.2 32 6.8 SSE 13 15 7 8 1017.6 - 0.0
24/08:00pm 14.9 10.4 -3.0 29 7.3 SSE 11 13 6 7 1017.2 - 0.0
24/07:30pm 15.9 11.4 -3.1 27 7.8 S 11 13 6 7 1016.9 - 0.0
24/07:00pm 18.0 12.8 -2.8 24 8.7 SSE 15 17 8 9 1016.6 - 0.0
24/06:30pm 19.4 14.2 -2.8 22 9.5 SSE 15 17 8 9 1016.1 - 0.0
24/06:00pm 20.4 15.5 -3.3 20 10.1 SSE 13 24 7 13 1015.8 1015.1 0.0
24/05:30pm 21.0 14.9 -3.5 19 10.4 E 19 22 10 12 1015.4 - 0.0
24/05:00pm 21.1 16.3 -2.7 20 10.3 SSE 13 22 7 12 1015.1 - 0.0
24/04:30pm 21.0 15.6 -4.2 18 10.6 SE 15 22 8 12 1015.0 - 0.0
24/04:00pm 21.3 15.7 -3.2 19 10.5 SE 17 28 9 15 1014.9 - 0.0
24/03:30pm 20.8 15.4 -4.4 18 10.5 SE 15 26 8 14 1015.0 - 0.0
24/03:00pm 21.5 16.0 -2.4 20 10.5 SSE 17 24 9 13 1015.1 - 0.0
24/02:30pm 21.2 15.6 -3.3 19 10.5 E 17 26 9 14 1015.7 - 0.0

Other Formats:

Comma delimited format used in spreadsheet applications
http://www.bom.gov.au/fwo/IDD60801/IDD60801.94321.axf

JavaScript Object Notation format (JSON) in row-major order
http://www.bom.gov.au/fwo/IDD60801/IDD60801.94321.json